sensor_id;sensor_type;location;lat;lon;timestamp;P1;durP1;ratioP1;P2;durP2;ratioP2
33162;SDS011;29282;45.656;11.302;2024-03-06T00:01:47;4.97;;;2.92;;
33162;SDS011;29282;45.656;11.302;2024-03-06T00:04:13;5.32;;;2.67;;
33162;SDS011;29282;45.656;11.302;2024-03-06T00:06:41;5.75;;;3.05;;
33162;SDS011;29282;45.656;11.302;2024-03-06T00:09:06;6.47;;;3.00;;
33162;SDS011;29282;45.656;11.302;2024-03-06T00:11:33;5.78;;;2.90;;
33162;SDS011;29282;45.656;11.302;2024-03-06T00:14:01;7.25;;;2.97;;
33162;SDS011;29282;45.656;11.302;2024-03-06T00:16:27;6.15;;;2.97;;
33162;SDS011;29282;45.656;11.302;2024-03-06T00:18:53;6.85;;;3.08;;
33162;SDS011;29282;45.656;11.302;2024-03-06T00:21:18;6.18;;;3.00;;
33162;SDS011;29282;45.656;11.302;2024-03-06T00:23:44;5.20;;;2.67;;
33162;SDS011;29282;45.656;11.302;2024-03-06T00:26:11;3.83;;;2.30;;
33162;SDS011;29282;45.656;11.302;2024-03-06T00:28:38;4.72;;;2.60;;
33162;SDS011;29282;45.656;11.302;2024-03-06T00:31:07;5.40;;;2.97;;
33162;SDS011;29282;45.656;11.302;2024-03-06T00:33:32;4.72;;;2.72;;
33162;SDS011;29282;45.656;11.302;2024-03-06T00:35:58;6.03;;;3.03;;
33162;SDS011;29282;45.656;11.302;2024-03-06T00:38:24;5.07;;;2.97;;
33162;SDS011;29282;45.656;11.302;2024-03-06T00:40:49;4.93;;;2.25;;
33162;SDS011;29282;45.656;11.302;2024-03-06T00:43:17;4.75;;;2.70;;
33162;SDS011;29282;45.656;11.302;2024-03-06T00:45:43;5.38;;;2.75;;
33162;SDS011;29282;45.656;11.302;2024-03-06T00:48:09;6.07;;;2.80;;
33162;SDS011;29282;45.656;11.302;2024-03-06T00:50:34;5.13;;;2.83;;
33162;SDS011;29282;45.656;11.302;2024-03-06T00:53:00;7.75;;;3.08;;
33162;SDS011;29282;45.656;11.302;2024-03-06T00:55:26;6.60;;;2.90;;
33162;SDS011;29282;45.656;11.302;2024-03-06T00:57:51;4.75;;;2.75;;
33162;SDS011;29282;45.656;11.302;2024-03-06T01:00:16;5.70;;;2.50;;
33162;SDS011;29282;45.656;11.302;2024-03-06T01:02:42;4.88;;;2.30;;
33162;SDS011;29282;45.656;11.302;2024-03-06T01:05:08;3.72;;;2.40;;
33162;SDS011;29282;45.656;11.302;2024-03-06T01:07:37;5.38;;;2.72;;
33162;SDS011;29282;45.656;11.302;2024-03-06T01:10:03;5.60;;;2.75;;
33162;SDS011;29282;45.656;11.302;2024-03-06T01:12:31;5.03;;;2.47;;
33162;SDS011;29282;45.656;11.302;2024-03-06T01:14:57;4.55;;;2.53;;
33162;SDS011;29282;45.656;11.302;2024-03-06T01:17:23;4.53;;;2.92;;
33162;SDS011;29282;45.656;11.302;2024-03-06T01:19:49;3.97;;;2.35;;
33162;SDS011;29282;45.656;11.302;2024-03-06T01:22:14;4.47;;;2.55;;
33162;SDS011;29282;45.656;11.302;2024-03-06T01:24:40;3.55;;;2.20;;
33162;SDS011;29282;45.656;11.302;2024-03-06T01:27:05;4.38;;;2.20;;
33162;SDS011;29282;45.656;11.302;2024-03-06T01:29:31;3.42;;;2.28;;
33162;SDS011;29282;45.656;11.302;2024-03-06T01:31:57;5.95;;;2.40;;
33162;SDS011;29282;45.656;11.302;2024-03-06T01:34:23;4.15;;;2.30;;
33162;SDS011;29282;45.656;11.302;2024-03-06T01:36:50;3.55;;;2.20;;
33162;SDS011;29282;45.656;11.302;2024-03-06T01:39:15;4.20;;;2.40;;
33162;SDS011;29282;45.656;11.302;2024-03-06T01:41:45;4.20;;;2.20;;
33162;SDS011;29282;45.656;11.302;2024-03-06T01:44:14;3.78;;;2.08;;
33162;SDS011;29282;45.656;11.302;2024-03-06T01:46:40;4.20;;;2.15;;
33162;SDS011;29282;45.656;11.302;2024-03-06T01:49:05;3.47;;;2.17;;
33162;SDS011;29282;45.656;11.302;2024-03-06T01:51:32;4.47;;;2.22;;
33162;SDS011;29282;45.656;11.302;2024-03-06T01:53:57;3.67;;;2.10;;
33162;SDS011;29282;45.656;11.302;2024-03-06T01:56:26;3.67;;;2.25;;
33162;SDS011;29282;45.656;11.302;2024-03-06T01:58:52;2.80;;;1.95;;
33162;SDS011;29282;45.656;11.302;2024-03-06T02:01:19;3.28;;;2.22;;
33162;SDS011;29282;45.656;11.302;2024-03-06T02:03:46;3.80;;;2.20;;
33162;SDS011;29282;45.656;11.302;2024-03-06T02:06:13;2.85;;;1.92;;
33162;SDS011;29282;45.656;11.302;2024-03-06T02:08:40;3.50;;;2.08;;
33162;SDS011;29282;45.656;11.302;2024-03-06T02:11:06;3.38;;;1.92;;
33162;SDS011;29282;45.656;11.302;2024-03-06T02:13:32;3.97;;;2.20;;
33162;SDS011;29282;45.656;11.302;2024-03-06T02:15:58;4.68;;;1.95;;
33162;SDS011;29282;45.656;11.302;2024-03-06T02:18:23;3.20;;;1.95;;
33162;SDS011;29282;45.656;11.302;2024-03-06T02:20:49;3.03;;;2.00;;
33162;SDS011;29282;45.656;11.302;2024-03-06T02:23:15;2.45;;;1.60;;
33162;SDS011;29282;45.656;11.302;2024-03-06T02:25:43;3.05;;;2.13;;
33162;SDS011;29282;45.656;11.302;2024-03-06T02:28:11;3.50;;;2.00;;
33162;SDS011;29282;45.656;11.302;2024-03-06T02:30:37;3.22;;;2.08;;
33162;SDS011;29282;45.656;11.302;2024-03-06T02:33:03;2.83;;;1.90;;
33162;SDS011;29282;45.656;11.302;2024-03-06T02:35:34;3.78;;;2.17;;
33162;SDS011;29282;45.656;11.302;2024-03-06T02:38:01;4.50;;;2.10;;
33162;SDS011;29282;45.656;11.302;2024-03-06T02:40:30;3.33;;;1.90;;
33162;SDS011;29282;45.656;11.302;2024-03-06T02:42:56;3.33;;;1.77;;
33162;SDS011;29282;45.656;11.302;2024-03-06T02:45:21;3.90;;;2.20;;
33162;SDS011;29282;45.656;11.302;2024-03-06T02:47:47;3.40;;;2.03;;
33162;SDS011;29282;45.656;11.302;2024-03-06T02:50:12;2.78;;;1.90;;
33162;SDS011;29282;45.656;11.302;2024-03-06T02:52:38;3.38;;;1.90;;
33162;SDS011;29282;45.656;11.302;2024-03-06T02:55:07;3.55;;;1.90;;
33162;SDS011;29282;45.656;11.302;2024-03-06T02:57:32;3.42;;;1.85;;
33162;SDS011;29282;45.656;11.302;2024-03-06T02:59:58;3.30;;;1.58;;
33162;SDS011;29282;45.656;11.302;2024-03-06T03:02:24;2.28;;;1.73;;
33162;SDS011;29282;45.656;11.302;2024-03-06T03:04:51;3.38;;;1.85;;
33162;SDS011;29282;45.656;11.302;2024-03-06T03:07:17;2.60;;;1.75;;
33162;SDS011;29282;45.656;11.302;2024-03-06T03:09:44;2.38;;;1.75;;
33162;SDS011;29282;45.656;11.302;2024-03-06T03:12:10;2.55;;;1.75;;
33162;SDS011;29282;45.656;11.302;2024-03-06T03:14:36;2.75;;;1.48;;
33162;SDS011;29282;45.656;11.302;2024-03-06T03:17:02;2.28;;;1.73;;
33162;SDS011;29282;45.656;11.302;2024-03-06T03:19:30;2.85;;;1.88;;
33162;SDS011;29282;45.656;11.302;2024-03-06T03:21:58;2.90;;;1.73;;
33162;SDS011;29282;45.656;11.302;2024-03-06T03:24:24;3.17;;;1.80;;
33162;SDS011;29282;45.656;11.302;2024-03-06T03:26:53;2.42;;;1.65;;
33162;SDS011;29282;45.656;11.302;2024-03-06T03:29:18;2.53;;;1.80;;
33162;SDS011;29282;45.656;11.302;2024-03-06T03:31:44;2.88;;;1.80;;
33162;SDS011;29282;45.656;11.302;2024-03-06T03:34:09;3.17;;;2.15;;
33162;SDS011;29282;45.656;11.302;2024-03-06T03:36:39;2.33;;;1.80;;
33162;SDS011;29282;45.656;11.302;2024-03-06T03:41:44;3.05;;;1.75;;
33162;SDS011;29282;45.656;11.302;2024-03-06T03:44:11;2.60;;;1.63;;
33162;SDS011;29282;45.656;11.302;2024-03-06T03:46:37;2.38;;;1.70;;
33162;SDS011;29282;45.656;11.302;2024-03-06T03:49:03;2.63;;;1.85;;
33162;SDS011;29282;45.656;11.302;2024-03-06T03:51:28;3.17;;;1.75;;
33162;SDS011;29282;45.656;11.302;2024-03-06T03:53:54;2.88;;;1.77;;
33162;SDS011;29282;45.656;11.302;2024-03-06T03:56:19;3.08;;;1.80;;
33162;SDS011;29282;45.656;11.302;2024-03-06T03:58:45;2.47;;;1.77;;
33162;SDS011;29282;45.656;11.302;2024-03-06T04:01:11;1.77;;;1.30;;
33162;SDS011;29282;45.656;11.302;2024-03-06T04:03:36;2.70;;;1.67;;
33162;SDS011;29282;45.656;11.302;2024-03-06T04:06:02;2.40;;;1.83;;
33162;SDS011;29282;45.656;11.302;2024-03-06T04:08:27;2.72;;;1.85;;
33162;SDS011;29282;45.656;11.302;2024-03-06T04:10:53;1.95;;;1.50;;
33162;SDS011;29282;45.656;11.302;2024-03-06T04:13:19;3.08;;;1.67;;
33162;SDS011;29282;45.656;11.302;2024-03-06T04:15:45;2.10;;;1.50;;
33162;SDS011;29282;45.656;11.302;2024-03-06T04:18:11;2.45;;;1.60;;
33162;SDS011;29282;45.656;11.302;2024-03-06T04:20:36;3.22;;;1.90;;
33162;SDS011;29282;45.656;11.302;2024-03-06T04:23:05;3.00;;;1.60;;
33162;SDS011;29282;45.656;11.302;2024-03-06T04:25:30;2.80;;;1.42;;
33162;SDS011;29282;45.656;11.302;2024-03-06T04:27:56;3.22;;;1.80;;
33162;SDS011;29282;45.656;11.302;2024-03-06T04:30:21;2.17;;;1.88;;
33162;SDS011;29282;45.656;11.302;2024-03-06T04:32:47;2.83;;;2.13;;
33162;SDS011;29282;45.656;11.302;2024-03-06T04:35:12;1.90;;;1.70;;
33162;SDS011;29282;45.656;11.302;2024-03-06T04:37:38;2.50;;;1.60;;
33162;SDS011;29282;45.656;11.302;2024-03-06T04:40:04;2.05;;;1.63;;
33162;SDS011;29282;45.656;11.302;2024-03-06T04:42:36;2.80;;;1.67;;
33162;SDS011;29282;45.656;11.302;2024-03-06T04:45:02;2.38;;;1.60;;
33162;SDS011;29282;45.656;11.302;2024-03-06T04:47:28;3.45;;;1.92;;
33162;SDS011;29282;45.656;11.302;2024-03-06T04:49:54;2.70;;;1.70;;
33162;SDS011;29282;45.656;11.302;2024-03-06T04:52:19;2.20;;;1.60;;
33162;SDS011;29282;45.656;11.302;2024-03-06T04:54:45;2.05;;;1.80;;
33162;SDS011;29282;45.656;11.302;2024-03-06T04:57:10;2.53;;;1.48;;
33162;SDS011;29282;45.656;11.302;2024-03-06T04:59:36;2.13;;;1.65;;
33162;SDS011;29282;45.656;11.302;2024-03-06T05:02:01;2.13;;;1.40;;
33162;SDS011;29282;45.656;11.302;2024-03-06T05:04:28;2.42;;;1.60;;
33162;SDS011;29282;45.656;11.302;2024-03-06T05:06:54;2.05;;;1.55;;
33162;SDS011;29282;45.656;11.302;2024-03-06T05:09:19;2.72;;;1.60;;
33162;SDS011;29282;45.656;11.302;2024-03-06T05:11:45;2.42;;;1.73;;
33162;SDS011;29282;45.656;11.302;2024-03-06T05:14:10;2.20;;;1.40;;
33162;SDS011;29282;45.656;11.302;2024-03-06T05:16:36;2.03;;;1.60;;
33162;SDS011;29282;45.656;11.302;2024-03-06T05:19:01;2.70;;;1.85;;
33162;SDS011;29282;45.656;11.302;2024-03-06T05:21:27;2.22;;;1.50;;
33162;SDS011;29282;45.656;11.302;2024-03-06T05:23:52;1.67;;;1.48;;
33162;SDS011;29282;45.656;11.302;2024-03-06T05:26:19;1.92;;;1.48;;
33162;SDS011;29282;45.656;11.302;2024-03-06T05:28:44;1.83;;;1.40;;
33162;SDS011;29282;45.656;11.302;2024-03-06T05:31:16;2.05;;;1.48;;
33162;SDS011;29282;45.656;11.302;2024-03-06T05:33:44;1.90;;;1.43;;
33162;SDS011;29282;45.656;11.302;2024-03-06T05:36:10;2.70;;;1.50;;
33162;SDS011;29282;45.656;11.302;2024-03-06T05:38:38;2.40;;;1.63;;
33162;SDS011;29282;45.656;11.302;2024-03-06T05:41:04;1.80;;;1.50;;
33162;SDS011;29282;45.656;11.302;2024-03-06T05:43:29;2.00;;;1.50;;
33162;SDS011;29282;45.656;11.302;2024-03-06T05:45:55;1.85;;;1.50;;
33162;SDS011;29282;45.656;11.302;2024-03-06T05:48:20;2.20;;;1.40;;
33162;SDS011;29282;45.656;11.302;2024-03-06T05:50:45;1.90;;;1.33;;
33162;SDS011;29282;45.656;11.302;2024-03-06T05:53:11;1.98;;;1.48;;
33162;SDS011;29282;45.656;11.302;2024-03-06T05:55:37;2.63;;;1.48;;
33162;SDS011;29282;45.656;11.302;2024-03-06T05:58:02;3.20;;;1.70;;
33162;SDS011;29282;45.656;11.302;2024-03-06T06:00:28;2.35;;;1.35;;
33162;SDS011;29282;45.656;11.302;2024-03-06T06:02:53;2.08;;;1.48;;
33162;SDS011;29282;45.656;11.302;2024-03-06T06:05:19;2.17;;;1.42;;
33162;SDS011;29282;45.656;11.302;2024-03-06T06:07:45;2.05;;;1.70;;
33162;SDS011;29282;45.656;11.302;2024-03-06T06:10:11;1.95;;;1.60;;
33162;SDS011;29282;45.656;11.302;2024-03-06T06:12:36;3.90;;;1.50;;
33162;SDS011;29282;45.656;11.302;2024-03-06T06:15:02;1.67;;;1.45;;
33162;SDS011;29282;45.656;11.302;2024-03-06T06:17:28;2.30;;;1.48;;
33162;SDS011;29282;45.656;11.302;2024-03-06T06:19:53;2.00;;;1.42;;
33162;SDS011;29282;45.656;11.302;2024-03-06T06:22:18;2.88;;;1.52;;
33162;SDS011;29282;45.656;11.302;2024-03-06T06:24:44;2.40;;;1.67;;
33162;SDS011;29282;45.656;11.302;2024-03-06T06:27:11;4.30;;;1.75;;
33162;SDS011;29282;45.656;11.302;2024-03-06T06:29:36;2.28;;;1.67;;
33162;SDS011;29282;45.656;11.302;2024-03-06T06:32:02;1.98;;;1.30;;
33162;SDS011;29282;45.656;11.302;2024-03-06T06:34:27;2.53;;;1.55;;
33162;SDS011;29282;45.656;11.302;2024-03-06T06:36:53;1.63;;;1.27;;
33162;SDS011;29282;45.656;11.302;2024-03-06T06:39:19;3.17;;;1.52;;
33162;SDS011;29282;45.656;11.302;2024-03-06T06:41:44;2.13;;;1.75;;
33162;SDS011;29282;45.656;11.302;2024-03-06T06:44:10;2.35;;;1.60;;
33162;SDS011;29282;45.656;11.302;2024-03-06T06:46:36;1.65;;;1.55;;
33162;SDS011;29282;45.656;11.302;2024-03-06T06:49:01;1.55;;;1.40;;
33162;SDS011;29282;45.656;11.302;2024-03-06T06:51:27;2.38;;;1.40;;
33162;SDS011;29282;45.656;11.302;2024-03-06T06:53:52;1.45;;;1.30;;
33162;SDS011;29282;45.656;11.302;2024-03-06T06:56:17;1.80;;;1.50;;
33162;SDS011;29282;45.656;11.302;2024-03-06T06:58:43;1.92;;;1.45;;
33162;SDS011;29282;45.656;11.302;2024-03-06T07:01:09;2.17;;;1.60;;
33162;SDS011;29282;45.656;11.302;2024-03-06T07:03:35;2.03;;;1.42;;
33162;SDS011;29282;45.656;11.302;2024-03-06T07:06:00;2.00;;;1.40;;
33162;SDS011;29282;45.656;11.302;2024-03-06T07:08:28;2.13;;;1.50;;
33162;SDS011;29282;45.656;11.302;2024-03-06T07:10:53;1.55;;;1.25;;
33162;SDS011;29282;45.656;11.302;2024-03-06T07:13:19;2.47;;;1.42;;
33162;SDS011;29282;45.656;11.302;2024-03-06T07:15:45;2.08;;;1.50;;
33162;SDS011;29282;45.656;11.302;2024-03-06T07:18:11;1.80;;;1.42;;
33162;SDS011;29282;45.656;11.302;2024-03-06T07:20:39;2.05;;;1.60;;
33162;SDS011;29282;45.656;11.302;2024-03-06T07:23:05;2.65;;;1.58;;
33162;SDS011;29282;45.656;11.302;2024-03-06T07:25:33;2.33;;;1.77;;
33162;SDS011;29282;45.656;11.302;2024-03-06T07:27:59;2.65;;;1.70;;
33162;SDS011;29282;45.656;11.302;2024-03-06T07:30:24;3.53;;;1.80;;
33162;SDS011;29282;45.656;11.302;2024-03-06T07:32:50;3.95;;;1.75;;
33162;SDS011;29282;45.656;11.302;2024-03-06T07:35:15;2.75;;;1.60;;
33162;SDS011;29282;45.656;11.302;2024-03-06T07:37:42;3.03;;;1.80;;
33162;SDS011;29282;45.656;11.302;2024-03-06T07:40:09;6.60;;;1.88;;
33162;SDS011;29282;45.656;11.302;2024-03-06T07:42:35;2.67;;;1.95;;
33162;SDS011;29282;45.656;11.302;2024-03-06T07:45:01;3.58;;;2.00;;
33162;SDS011;29282;45.656;11.302;2024-03-06T07:47:26;5.78;;;1.98;;
33162;SDS011;29282;45.656;11.302;2024-03-06T07:49:52;8.35;;;1.70;;
33162;SDS011;29282;45.656;11.302;2024-03-06T07:52:17;8.07;;;2.17;;
33162;SDS011;29282;45.656;11.302;2024-03-06T07:54:43;9.60;;;1.92;;
33162;SDS011;29282;45.656;11.302;2024-03-06T07:57:08;8.20;;;2.00;;
33162;SDS011;29282;45.656;11.302;2024-03-06T07:59:35;2.92;;;1.85;;
33162;SDS011;29282;45.656;11.302;2024-03-06T08:02:00;2.75;;;1.58;;
33162;SDS011;29282;45.656;11.302;2024-03-06T08:04:26;7.57;;;2.30;;
33162;SDS011;29282;45.656;11.302;2024-03-06T08:06:52;8.30;;;2.00;;
33162;SDS011;29282;45.656;11.302;2024-03-06T08:09:17;4.88;;;1.70;;
33162;SDS011;29282;45.656;11.302;2024-03-06T08:11:44;5.68;;;1.80;;
33162;SDS011;29282;45.656;11.302;2024-03-06T08:14:10;2.47;;;1.67;;
33162;SDS011;29282;45.656;11.302;2024-03-06T08:16:36;6.47;;;2.10;;
33162;SDS011;29282;45.656;11.302;2024-03-06T08:19:02;4.53;;;2.05;;
33162;SDS011;29282;45.656;11.302;2024-03-06T08:21:28;2.83;;;1.80;;
33162;SDS011;29282;45.656;11.302;2024-03-06T08:23:53;4.78;;;2.00;;
33162;SDS011;29282;45.656;11.302;2024-03-06T08:26:19;4.97;;;1.90;;
33162;SDS011;29282;45.656;11.302;2024-03-06T08:28:44;3.35;;;1.73;;
33162;SDS011;29282;45.656;11.302;2024-03-06T08:31:10;5.05;;;1.85;;
33162;SDS011;29282;45.656;11.302;2024-03-06T08:33:35;5.13;;;2.20;;
33162;SDS011;29282;45.656;11.302;2024-03-06T08:36:01;2.92;;;1.92;;
33162;SDS011;29282;45.656;11.302;2024-03-06T08:38:27;7.95;;;2.00;;
33162;SDS011;29282;45.656;11.302;2024-03-06T08:40:52;2.80;;;1.98;;
33162;SDS011;29282;45.656;11.302;2024-03-06T08:43:18;4.78;;;2.05;;
33162;SDS011;29282;45.656;11.302;2024-03-06T08:45:44;5.65;;;2.10;;
33162;SDS011;29282;45.656;11.302;2024-03-06T08:48:10;5.97;;;2.33;;
33162;SDS011;29282;45.656;11.302;2024-03-06T08:50:36;4.13;;;1.75;;
33162;SDS011;29282;45.656;11.302;2024-03-06T08:53:02;4.32;;;1.95;;
33162;SDS011;29282;45.656;11.302;2024-03-06T08:55:27;5.18;;;2.08;;
33162;SDS011;29282;45.656;11.302;2024-03-06T08:57:53;4.10;;;1.80;;
33162;SDS011;29282;45.656;11.302;2024-03-06T09:00:19;5.68;;;2.17;;
33162;SDS011;29282;45.656;11.302;2024-03-06T09:02:48;5.28;;;2.17;;
33162;SDS011;29282;45.656;11.302;2024-03-06T09:05:14;4.63;;;2.08;;
33162;SDS011;29282;45.656;11.302;2024-03-06T09:07:40;3.03;;;1.85;;
33162;SDS011;29282;45.656;11.302;2024-03-06T09:10:09;3.55;;;2.13;;
33162;SDS011;29282;45.656;11.302;2024-03-06T09:12:36;3.22;;;1.80;;
33162;SDS011;29282;45.656;11.302;2024-03-06T09:15:02;3.42;;;1.92;;
33162;SDS011;29282;45.656;11.302;2024-03-06T09:17:28;3.15;;;1.88;;
33162;SDS011;29282;45.656;11.302;2024-03-06T09:19:54;5.07;;;2.05;;
33162;SDS011;29282;45.656;11.302;2024-03-06T09:22:20;4.05;;;2.08;;
33162;SDS011;29282;45.656;11.302;2024-03-06T09:24:46;3.22;;;2.15;;
33162;SDS011;29282;45.656;11.302;2024-03-06T09:27:13;3.97;;;1.92;;
33162;SDS011;29282;45.656;11.302;2024-03-06T09:29:39;3.83;;;1.70;;
33162;SDS011;29282;45.656;11.302;2024-03-06T09:32:05;3.38;;;2.03;;
33162;SDS011;29282;45.656;11.302;2024-03-06T09:34:30;3.42;;;1.90;;
33162;SDS011;29282;45.656;11.302;2024-03-06T09:36:56;3.60;;;2.00;;
33162;SDS011;29282;45.656;11.302;2024-03-06T09:39:21;3.92;;;1.80;;
33162;SDS011;29282;45.656;11.302;2024-03-06T09:41:53;3.88;;;2.00;;
33162;SDS011;29282;45.656;11.302;2024-03-06T09:44:20;3.03;;;1.85;;
33162;SDS011;29282;45.656;11.302;2024-03-06T09:46:47;2.55;;;1.70;;
33162;SDS011;29282;45.656;11.302;2024-03-06T09:49:14;5.72;;;2.00;;
33162;SDS011;29282;45.656;11.302;2024-03-06T09:51:44;4.40;;;2.15;;
33162;SDS011;29282;45.656;11.302;2024-03-06T09:54:11;2.92;;;1.85;;
33162;SDS011;29282;45.656;11.302;2024-03-06T09:56:40;4.90;;;1.60;;
33162;SDS011;29282;45.656;11.302;2024-03-06T09:59:07;4.25;;;1.90;;
33162;SDS011;29282;45.656;11.302;2024-03-06T10:01:38;4.32;;;1.85;;
33162;SDS011;29282;45.656;11.302;2024-03-06T10:04:17;4.25;;;1.83;;
33162;SDS011;29282;45.656;11.302;2024-03-06T10:06:44;4.50;;;1.90;;
33162;SDS011;29282;45.656;11.302;2024-03-06T10:09:11;5.03;;;2.00;;
33162;SDS011;29282;45.656;11.302;2024-03-06T10:11:40;3.50;;;1.63;;
33162;SDS011;29282;45.656;11.302;2024-03-06T10:14:07;3.88;;;1.83;;
33162;SDS011;29282;45.656;11.302;2024-03-06T10:16:33;6.30;;;2.03;;
33162;SDS011;29282;45.656;11.302;2024-03-06T10:19:16;3.65;;;1.83;;
33162;SDS011;29282;45.656;11.302;2024-03-06T10:21:43;3.00;;;1.88;;
33162;SDS011;29282;45.656;11.302;2024-03-06T10:24:10;3.40;;;1.77;;
33162;SDS011;29282;45.656;11.302;2024-03-06T10:26:36;5.38;;;2.00;;
33162;SDS011;29282;45.656;11.302;2024-03-06T10:29:01;5.15;;;2.30;;
33162;SDS011;29282;45.656;11.302;2024-03-06T10:31:28;4.10;;;1.85;;
33162;SDS011;29282;45.656;11.302;2024-03-06T10:33:53;3.80;;;1.70;;
33162;SDS011;29282;45.656;11.302;2024-03-06T10:36:19;5.43;;;2.10;;
33162;SDS011;29282;45.656;11.302;2024-03-06T10:38:44;3.80;;;2.00;;
33162;SDS011;29282;45.656;11.302;2024-03-06T10:41:16;3.33;;;1.90;;
33162;SDS011;29282;45.656;11.302;2024-03-06T10:43:50;5.32;;;2.10;;
33162;SDS011;29282;45.656;11.302;2024-03-06T10:46:19;4.30;;;1.85;;
33162;SDS011;29282;45.656;11.302;2024-03-06T10:48:46;3.65;;;2.10;;
33162;SDS011;29282;45.656;11.302;2024-03-06T10:51:14;2.67;;;1.90;;
33162;SDS011;29282;45.656;11.302;2024-03-06T10:53:43;3.72;;;1.88;;
33162;SDS011;29282;45.656;11.302;2024-03-06T10:56:09;5.75;;;2.05;;
33162;SDS011;29282;45.656;11.302;2024-03-06T10:58:35;2.95;;;1.70;;
33162;SDS011;29282;45.656;11.302;2024-03-06T11:01:03;4.38;;;1.90;;
33162;SDS011;29282;45.656;11.302;2024-03-06T11:03:31;3.70;;;2.05;;
33162;SDS011;29282;45.656;11.302;2024-03-06T11:05:58;4.80;;;1.90;;
33162;SDS011;29282;45.656;11.302;2024-03-06T11:08:24;3.00;;;1.98;;
33162;SDS011;29282;45.656;11.302;2024-03-06T11:10:50;5.82;;;2.28;;
33162;SDS011;29282;45.656;11.302;2024-03-06T11:15:49;8.75;;;2.15;;
33162;SDS011;29282;45.656;11.302;2024-03-06T11:23:29;2.58;;;2.00;;
33162;SDS011;29282;45.656;11.302;2024-03-06T11:25:56;5.50;;;2.05;;
33162;SDS011;29282;45.656;11.302;2024-03-06T11:28:26;6.72;;;1.80;;
33162;SDS011;29282;45.656;11.302;2024-03-06T11:31:00;3.55;;;2.03;;
33162;SDS011;29282;45.656;11.302;2024-03-06T11:36:18;3.97;;;1.95;;
33162;SDS011;29282;45.656;11.302;2024-03-06T11:41:24;4.28;;;2.08;;
33162;SDS011;29282;45.656;11.302;2024-03-06T11:43:52;5.53;;;2.20;;
33162;SDS011;29282;45.656;11.302;2024-03-06T11:46:19;3.75;;;1.80;;
33162;SDS011;29282;45.656;11.302;2024-03-06T11:48:52;4.68;;;2.20;;
33162;SDS011;29282;45.656;11.302;2024-03-06T11:51:24;4.68;;;2.30;;
33162;SDS011;29282;45.656;11.302;2024-03-06T11:53:51;4.88;;;2.08;;
33162;SDS011;29282;45.656;11.302;2024-03-06T11:56:18;5.65;;;2.33;;
33162;SDS011;29282;45.656;11.302;2024-03-06T11:58:44;3.83;;;2.13;;
33162;SDS011;29282;45.656;11.302;2024-03-06T12:01:10;3.13;;;1.90;;
33162;SDS011;29282;45.656;11.302;2024-03-06T12:03:35;5.88;;;1.88;;
33162;SDS011;29282;45.656;11.302;2024-03-06T12:06:01;3.78;;;1.77;;
33162;SDS011;29282;45.656;11.302;2024-03-06T12:08:28;3.28;;;1.73;;
33162;SDS011;29282;45.656;11.302;2024-03-06T12:10:53;3.45;;;1.85;;
33162;SDS011;29282;45.656;11.302;2024-03-06T12:13:23;2.85;;;1.63;;
33162;SDS011;29282;45.656;11.302;2024-03-06T12:15:49;4.90;;;2.00;;
33162;SDS011;29282;45.656;11.302;2024-03-06T12:18:16;3.60;;;1.98;;
33162;SDS011;29282;45.656;11.302;2024-03-06T12:20:43;3.92;;;1.90;;
33162;SDS011;29282;45.656;11.302;2024-03-06T12:23:18;3.65;;;1.77;;
33162;SDS011;29282;45.656;11.302;2024-03-06T12:25:46;4.57;;;2.17;;
33162;SDS011;29282;45.656;11.302;2024-03-06T12:28:12;9.32;;;1.98;;
33162;SDS011;29282;45.656;11.302;2024-03-06T12:30:43;3.72;;;1.90;;
33162;SDS011;29282;45.656;11.302;2024-03-06T12:33:09;7.43;;;1.92;;
33162;SDS011;29282;45.656;11.302;2024-03-06T12:35:39;6.00;;;1.80;;
33162;SDS011;29282;45.656;11.302;2024-03-06T12:38:12;7.38;;;1.98;;
33162;SDS011;29282;45.656;11.302;2024-03-06T12:40:39;10.77;;;2.65;;
33162;SDS011;29282;45.656;11.302;2024-03-06T12:43:04;5.10;;;1.98;;
33162;SDS011;29282;45.656;11.302;2024-03-06T12:45:30;5.45;;;1.95;;
33162;SDS011;29282;45.656;11.302;2024-03-06T12:47:55;7.22;;;2.13;;
33162;SDS011;29282;45.656;11.302;2024-03-06T12:50:22;4.13;;;2.08;;
33162;SDS011;29282;45.656;11.302;2024-03-06T12:52:49;4.70;;;1.90;;
33162;SDS011;29282;45.656;11.302;2024-03-06T12:55:20;4.85;;;1.80;;
33162;SDS011;29282;45.656;11.302;2024-03-06T12:57:45;3.65;;;2.10;;
33162;SDS011;29282;45.656;11.302;2024-03-06T13:00:12;4.97;;;1.90;;
33162;SDS011;29282;45.656;11.302;2024-03-06T13:02:43;4.28;;;1.90;;
33162;SDS011;29282;45.656;11.302;2024-03-06T13:05:10;3.67;;;1.90;;
33162;SDS011;29282;45.656;11.302;2024-03-06T13:07:36;6.65;;;1.90;;
33162;SDS011;29282;45.656;11.302;2024-03-06T13:10:05;3.28;;;1.60;;
33162;SDS011;29282;45.656;11.302;2024-03-06T13:12:30;5.35;;;1.98;;
33162;SDS011;29282;45.656;11.302;2024-03-06T13:14:56;3.63;;;1.98;;
33162;SDS011;29282;45.656;11.302;2024-03-06T13:17:22;4.13;;;2.05;;
33162;SDS011;29282;45.656;11.302;2024-03-06T13:19:47;5.00;;;2.10;;
33162;SDS011;29282;45.656;11.302;2024-03-06T13:22:14;2.85;;;1.77;;
33162;SDS011;29282;45.656;11.302;2024-03-06T13:24:40;4.40;;;1.83;;
33162;SDS011;29282;45.656;11.302;2024-03-06T13:27:05;4.47;;;1.80;;
33162;SDS011;29282;45.656;11.302;2024-03-06T13:29:31;3.08;;;1.70;;
33162;SDS011;29282;45.656;11.302;2024-03-06T13:31:56;5.20;;;2.00;;
33162;SDS011;29282;45.656;11.302;2024-03-06T13:34:22;7.80;;;1.92;;
33162;SDS011;29282;45.656;11.302;2024-03-06T13:36:47;4.38;;;1.75;;
33162;SDS011;29282;45.656;11.302;2024-03-06T13:39:13;2.22;;;1.65;;
33162;SDS011;29282;45.656;11.302;2024-03-06T13:41:38;4.45;;;2.15;;
33162;SDS011;29282;45.656;11.302;2024-03-06T13:44:05;4.55;;;2.05;;
33162;SDS011;29282;45.656;11.302;2024-03-06T13:46:32;5.60;;;2.22;;
33162;SDS011;29282;45.656;11.302;2024-03-06T14:42:03;5.38;;;2.10;;
33162;SDS011;29282;45.656;11.302;2024-03-06T14:44:29;5.72;;;2.17;;
33162;SDS011;29282;45.656;11.302;2024-03-06T14:46:56;6.07;;;2.47;;
33162;SDS011;29282;45.656;11.302;2024-03-06T14:49:21;7.53;;;2.13;;
33162;SDS011;29282;45.656;11.302;2024-03-06T14:51:47;6.82;;;2.20;;
33162;SDS011;29282;45.656;11.302;2024-03-06T14:54:12;5.05;;;2.28;;
33162;SDS011;29282;45.656;11.302;2024-03-06T14:56:42;7.97;;;2.40;;
33162;SDS011;29282;45.656;11.302;2024-03-06T14:59:08;9.98;;;2.50;;
33162;SDS011;29282;45.656;11.302;2024-03-06T15:01:34;7.15;;;2.50;;
33162;SDS011;29282;45.656;11.302;2024-03-06T15:04:02;6.45;;;2.28;;
33162;SDS011;29282;45.656;11.302;2024-03-06T15:06:27;4.72;;;1.88;;
33162;SDS011;29282;45.656;11.302;2024-03-06T15:08:53;5.53;;;2.08;;
33162;SDS011;29282;45.656;11.302;2024-03-06T15:11:19;6.10;;;1.73;;
33162;SDS011;29282;45.656;11.302;2024-03-06T15:13:47;5.65;;;2.70;;
33162;SDS011;29282;45.656;11.302;2024-03-06T15:16:13;4.88;;;2.00;;
33162;SDS011;29282;45.656;11.302;2024-03-06T15:18:38;6.13;;;2.05;;
33162;SDS011;29282;45.656;11.302;2024-03-06T15:21:04;3.55;;;1.95;;
33162;SDS011;29282;45.656;11.302;2024-03-06T15:23:29;5.18;;;1.95;;
33162;SDS011;29282;45.656;11.302;2024-03-06T15:25:57;3.92;;;1.98;;
33162;SDS011;29282;45.656;11.302;2024-03-06T15:28:23;3.03;;;1.90;;
33162;SDS011;29282;45.656;11.302;2024-03-06T15:30:48;5.63;;;2.20;;
33162;SDS011;29282;45.656;11.302;2024-03-06T15:33:14;5.40;;;2.65;;
33162;SDS011;29282;45.656;11.302;2024-03-06T15:35:40;5.07;;;1.90;;
33162;SDS011;29282;45.656;11.302;2024-03-06T15:38:06;6.85;;;2.25;;